Time;durP1;ratioP1;P1;durP2;ratioP2;P2;SDS_P1;SDS_P2;PMS_P1;PMS_P2;Temp;Humidity;BMP_temperature;BMP_pressure;BME280_temperature;BME280_humidity;BME280_pressure;Samples;Min_cycle;Max_cycle;Signal;HPM_P1;HPM_P2
2024/01/08 00:01:31;;;;;;;;;;;;;;;-4.45;100.00;95790.16;10554110;27;1982;-67
2024/01/08 00:06:34;;;;;;;;;;;;;;;-4.65;100.00;95793.25;10533089;28;1947;-69
2024/01/08 00:11:37;;;;;;;;;;;;;;;-4.72;100.00;95789.72;10559377;28;1933;-68
2024/01/08 00:16:39;;;;;;;;;;;;;;;-4.92;100.00;95792.03;10548410;28;2341;-68
2024/01/08 00:21:42;;;;;;;;;;;;;;;-4.93;100.00;95790.41;10552645;28;2006;-67
2024/01/08 00:26:45;;;;;;;;;;;;;;;-4.99;100.00;95801.59;10551156;28;2249;-70
2024/01/08 00:31:47;;;;;;;;;;;;;;;-5.08;100.00;95800.06;10552847;27;1955;-69
2024/01/08 00:36:50;;;;;;;;;;;;;;;-5.12;100.00;95803.19;10546648;28;2002;-68
2024/01/08 00:41:53;;;;;;;;;;;;;;;-5.09;100.00;95794.97;10559327;28;2045;-72
2024/01/08 00:46:56;;;;;;;;;;;;;;;-5.05;100.00;95796.25;10548180;28;1970;-69
2024/01/08 00:51:59;;;;;;;;;;;;;;;-5.06;100.00;95800.69;10547462;28;2122;-69
2024/01/08 00:57:02;;;;;;;;;;;;;;;-5.18;100.00;95807.31;10559137;28;2062;-69
2024/01/08 01:02:05;;;;;;;;;;;;;;;-5.28;100.00;95801.50;10554990;28;2378;-68
2024/01/08 01:07:07;;;;;;;;;;;;;;;-5.16;100.00;95806.16;10546925;28;2037;-69
2024/01/08 01:12:10;;;;;;;;;;;;;;;-4.98;100.00;95807.66;10555621;28;1948;-68
2024/01/08 01:17:13;;;;;;;;;;;;;;;-5.30;100.00;95813.97;10552538;28;1914;-68
2024/01/08 01:22:17;;;;;;;;;;;;;;;-5.33;100.00;95809.91;10553724;28;2037;-68
2024/01/08 01:27:19;;;;;;;;;;;;;;;-5.33;100.00;95835.28;10542125;28;2002;-69
2024/01/08 01:32:21;;;;;;;;;;;;;;;-5.35;100.00;95830.19;10541893;28;2139;-69
2024/01/08 01:37:25;;;;;;;;;;;;;;;-5.39;100.00;95831.53;10541007;28;2250;-68
2024/01/08 01:42:28;;;;;;;;;;;;;;;-5.43;100.00;95831.06;10552886;28;2436;-69
2024/01/08 01:47:32;;;;;;;;;;;;;;;-5.51;100.00;95844.22;10551846;28;1962;-69
2024/01/08 01:52:35;;;;;;;;;;;;;;;-5.31;100.00;95843.78;10552893;28;2056;-68
2024/01/08 01:57:38;;;;;;;;;;;;;;;-5.31;100.00;95854.25;10555153;28;2283;-72
2024/01/08 02:02:41;;;;;;;;;;;;;;;-5.32;100.00;95852.63;10560610;27;2086;-74
2024/01/08 02:07:44;;;;;;;;;;;;;;;-5.35;100.00;95847.72;10553626;28;2085;-74
2024/01/08 02:12:47;;;;;;;;;;;;;;;-5.37;100.00;95844.47;10559341;28;2100;-73
2024/01/08 02:17:50;;;;;;;;;;;;;;;-5.37;100.00;95844.47;10548160;28;2058;-69
2024/01/08 02:22:52;;;;;;;;;;;;;;;-5.40;100.00;95836.97;10555700;28;2097;-69
2024/01/08 02:27:56;;;;;;;;;;;;;;;-5.35;100.00;95842.47;10552765;28;2100;-69
2024/01/08 02:32:58;;;;;;;;;;;;;;;-5.51;100.00;95833.75;10549679;28;2420;-70
2024/01/08 02:38:02;;;;;;;;;;;;;;;-5.45;100.00;95835.66;10556692;28;2075;-69
2024/01/08 02:43:06;;;;;;;;;;;;;;;-5.26;100.00;95836.22;10552401;28;2116;-69
2024/01/08 02:48:08;;;;;;;;;;;;;;;-5.35;100.00;95838.06;10557367;28;1976;-70
2024/01/08 02:53:11;;;;;;;;;;;;;;;-5.51;100.00;95843.41;10558388;28;2247;-70
2024/01/08 02:58:14;;;;;;;;;;;;;;;-5.36;100.00;95846.91;10560995;28;1926;-70
2024/01/08 03:03:17;;;;;;;;;;;;;;;-5.31;100.00;95843.78;10548917;27;2064;-70
2024/01/08 03:08:19;;;;;;;;;;;;;;;-5.25;100.00;95846.50;10556604;28;1997;-70
2024/01/08 03:13:22;;;;;;;;;;;;;;;-5.19;100.00;95855.50;10549654;27;2060;-69
2024/01/08 03:18:25;;;;;;;;;;;;;;;-5.16;100.00;95857.75;10559379;27;2119;-69
2024/01/08 03:23:28;;;;;;;;;;;;;;;-5.35;100.00;95863.44;10551034;27;1982;-69
2024/01/08 03:28:31;;;;;;;;;;;;;;;-5.51;100.00;95865.16;10556404;28;2309;-70
2024/01/08 03:33:34;;;;;;;;;;;;;;;-5.55;100.00;95874.34;10554456;28;2171;-70
2024/01/08 03:38:38;;;;;;;;;;;;;;;-5.59;100.00;95865.22;10553184;28;2088;-74
2024/01/08 03:43:43;;;;;;;;;;;;;;;-5.73;100.00;95874.59;10530695;28;2069;-69
2024/01/08 03:48:48;;;;;;;;;;;;;;;-5.58;100.00;95864.22;10548900;28;2010;-68
2024/01/08 03:53:53;;;;;;;;;;;;;;;-5.61;100.00;95861.94;10549493;28;1923;-69
2024/01/08 03:58:55;;;;;;;;;;;;;;;-5.55;100.00;95865.69;10548349;28;2032;-69
2024/01/08 04:03:58;;;;;;;;;;;;;;;-5.51;100.00;95864.34;10545491;28;2002;-69
2024/01/08 04:09:01;;;;;;;;;;;;;;;-5.49;100.00;95878.09;10546730;28;2048;-68
2024/01/08 04:14:07;;;;;;;;;;;;;;;-5.63;100.00;95874.38;10536644;28;2057;-70
2024/01/08 04:19:10;;;;;;;;;;;;;;;-5.57;100.00;95860.63;10553145;28;2057;-69
2024/01/08 04:24:13;;;;;;;;;;;;;;;-5.53;100.00;95872.38;10551296;28;2606;-68
2024/01/08 04:29:17;;;;;;;;;;;;;;;-5.67;100.00;95877.50;10544475;28;2084;-68
2024/01/08 04:34:22;;;;;;;;;;;;;;;-5.52;100.00;95881.88;10547979;28;1962;-69
2024/01/08 04:39:25;;;;;;;;;;;;;;;-5.40;100.00;95881.50;10548397;28;2073;-68
2024/01/08 04:44:27;;;;;;;;;;;;;;;-5.53;100.00;95882.06;10531429;28;2006;-68
2024/01/08 04:49:32;;;;;;;;;;;;;;;-5.55;100.00;95884.81;10556859;28;1890;-75
2024/01/08 04:54:35;;;;;;;;;;;;;;;-5.48;100.00;95890.19;10543911;28;2128;-67
2024/01/08 04:59:38;;;;;;;;;;;;;;;-5.58;100.00;95897.47;10552833;28;2013;-68
2024/01/08 05:04:40;;;;;;;;;;;;;;;-5.56;100.00;95898.91;10547775;28;1990;-70
2024/01/08 05:09:43;;;;;;;;;;;;;;;-5.52;100.00;95902.84;10543984;28;2169;-69
2024/01/08 05:14:47;;;;;;;;;;;;;;;-5.55;100.00;95899.72;10541685;28;2241;-70
2024/01/08 05:19:53;;;;;;;;;;;;;;;-5.59;100.00;95904.50;10551157;28;2129;-69
2024/01/08 05:24:56;;;;;;;;;;;;;;;-5.53;100.00;95906.44;10562124;28;2270;-68
2024/01/08 05:30:04;;;;;;;;;;;;;;;-5.59;100.00;95901.88;10557761;28;1915;-69
2024/01/08 05:35:06;;;;;;;;;;;;;;;-5.56;100.00;95908.56;10557711;28;2100;-68
2024/01/08 05:40:09;;;;;;;;;;;;;;;-5.56;100.00;95908.56;10554609;28;2262;-70
2024/01/08 05:45:12;;;;;;;;;;;;;;;-5.58;100.00;95905.31;10555204;28;1902;-70
2024/01/08 05:50:16;;;;;;;;;;;;;;;-5.49;100.00;95917.38;10550933;28;2343;-69
2024/01/08 05:55:19;;;;;;;;;;;;;;;-5.43;100.00;95921.94;10559733;28;1922;-70
2024/01/08 06:00:22;;;;;;;;;;;;;;;-5.40;100.00;95921.63;10559319;28;2042;-71
2024/01/08 06:05:24;;;;;;;;;;;;;;;-5.36;100.00;95927.31;10551573;28;1972;-69
2024/01/08 06:10:28;;;;;;;;;;;;;;;-5.48;100.00;95921.63;10551538;28;1953;-69
2024/01/08 06:15:31;;;;;;;;;;;;;;;-5.43;100.00;95925.38;10560192;27;2072;-68
2024/01/08 06:20:34;;;;;;;;;;;;;;;-5.40;100.00;95928.66;10554571;28;2030;-69
2024/01/08 06:25:36;;;;;;;;;;;;;;;-5.35;100.00;95931.56;10558974;28;2128;-70
2024/01/08 06:30:39;;;;;;;;;;;;;;;-5.40;100.00;95932.09;10551343;28;1994;-70
2024/01/08 06:35:42;;;;;;;;;;;;;;;-5.44;100.00;95939.47;10556519;27;2359;-69
2024/01/08 06:40:45;;;;;;;;;;;;;;;-5.47;100.00;95934.56;10549991;28;2091;-70
2024/01/08 06:45:49;;;;;;;;;;;;;;;-5.41;100.00;95942.72;10560878;27;2113;-69
2024/01/08 06:50:52;;;;;;;;;;;;;;;-5.45;100.00;95958.78;10558728;27;1978;-68
2024/01/08 06:55:56;;;;;;;;;;;;;;;-5.39;100.00;95957.31;10551398;28;2124;-68
2024/01/08 07:00:59;;;;;;;;;;;;;;;-5.28;100.00;95963.94;10542472;28;1904;-69
2024/01/08 07:06:02;;;;;;;;;;;;;;;-5.37;100.00;95955.31;10552015;27;1969;-73
2024/01/08 07:11:05;;;;;;;;;;;;;;;-5.45;100.00;95950.94;10553827;28;2205;-68
2024/01/08 07:16:08;;;;;;;;;;;;;;;-5.29;100.00;95952.66;10550688;28;2329;-70
2024/01/08 07:21:13;;;;;;;;;;;;;;;-5.29;100.00;95951.84;10548387;27;2038;-67
2024/01/08 07:26:16;;;;;;;;;;;;;;;-5.22;100.00;95952.78;10537819;27;2069;-67
2024/01/08 07:31:20;;;;;;;;;;;;;;;-5.11;100.00;95948.97;10550804;28;2124;-65
2024/01/08 07:36:23;;;;;;;;;;;;;;;-5.05;100.00;95954.34;10553682;28;2131;-66
2024/01/08 07:41:28;;;;;;;;;;;;;;;-4.84;100.00;95966.03;10564743;28;2089;-68
2024/01/08 07:46:31;;;;;;;;;;;;;;;-4.71;100.00;95976.75;10554221;28;2006;-69
2024/01/08 07:51:34;;;;;;;;;;;;;;;-5.01;100.00;95971.38;10552294;27;2113;-70
2024/01/08 07:56:38;;;;;;;;;;;;;;;-5.07;100.00;95979.91;10538486;28;1924;-70
2024/01/08 08:01:58;;;;;;;;;;;;;;;-4.76;100.00;95990.41;10550403;28;1909;-72
2024/01/08 08:07:01;;;;;;;;;;;;;;;-4.86;100.00;95995.03;10544387;28;2381;-65
2024/01/08 08:12:04;;;;;;;;;;;;;;;-4.86;100.00;95988.97;10551811;27;2014;-66
2024/01/08 08:17:07;;;;;;;;;;;;;;;-4.75;100.00;95992.03;10551568;28;1974;-66
2024/01/08 08:22:11;;;;;;;;;;;;;;;-4.50;100.00;95990.06;10554387;28;2248;-65
2024/01/08 08:27:15;;;;;;;;;;;;;;;-4.30;100.00;96005.34;10544696;27;2130;-67
2024/01/08 08:32:17;;;;;;;;;;;;;;;-4.11;100.00;96004.88;10548088;28;2053;-67
2024/01/08 08:37:20;;;;;;;;;;;;;;;-4.05;100.00;96006.78;10553049;28;2046;-66
2024/01/08 08:42:33;;;;;;;;;;;;;;;-4.46;100.00;96007.09;10551463;28;2224;-67
2024/01/08 08:47:36;;;;;;;;;;;;;;;-4.43;100.00;96013.81;10551837;28;2277;-66
2024/01/08 08:52:39;;;;;;;;;;;;;;;-4.39;100.00;96012.44;10558141;28;1926;-65
2024/01/08 08:57:42;;;;;;;;;;;;;;;-4.28;100.00;96016.47;10561678;27;2061;-67
2024/01/08 09:02:46;;;;;;;;;;;;;;;-3.82;100.00;96012.00;10560809;28;2304;-67
2024/01/08 09:07:49;;;;;;;;;;;;;;;-4.05;100.00;96019.91;10557176;28;2006;-66
2024/01/08 09:12:52;;;;;;;;;;;;;;;-4.28;100.00;96026.97;10553442;27;2120;-69
2024/01/08 09:17:55;;;;;;;;;;;;;;;-3.98;100.00;96038.41;10558163;28;2053;-68
2024/01/08 09:22:58;;;;;;;;;;;;;;;-4.08;100.00;96036.00;10556133;27;2196;-68
2024/01/08 09:28:01;;;;;;;;;;;;;;;-4.12;100.00;96043.44;10566938;28;1856;-68
2024/01/08 09:33:04;;;;;;;;;;;;;;;-4.13;100.00;96044.44;10568656;27;1887;-67
2024/01/08 09:38:07;;;;;;;;;;;;;;;-3.98;100.00;96041.03;10551976;28;1969;-69
2024/01/08 09:43:14;;;;;;;;;;;;;;;-3.93;100.00;96050.03;10558237;27;2061;-70
2024/01/08 09:48:17;;;;;;;;;;;;;;;-3.98;100.00;96052.34;10559202;28;2131;-70
2024/01/08 09:53:22;;;;;;;;;;;;;;;-3.69;100.00;96056.88;10550553;27;2021;-65
2024/01/08 09:58:25;;;;;;;;;;;;;;;-3.82;100.00;96060.13;10551462;28;1958;-67
2024/01/08 10:03:28;;;;;;;;;;;;;;;-3.92;100.00;96054.28;10533416;28;2021;-66
2024/01/08 10:08:31;;;;;;;;;;;;;;;-4.06;100.00;96043.75;10532840;28;1973;-66
2024/01/08 10:13:35;;;;;;;;;;;;;;;-4.10;100.00;96046.69;10553135;28;2112;-67
2024/01/08 10:18:37;;;;;;;;;;;;;;;-3.81;100.00;96042.53;10545808;28;1948;-69
2024/01/08 10:23:41;;;;;;;;;;;;;;;-3.92;100.00;96041.16;10542874;28;1984;-68
2024/01/08 10:28:44;;;;;;;;;;;;;;;-3.87;100.00;96040.63;10561232;27;2048;-66
2024/01/08 10:33:48;;;;;;;;;;;;;;;-3.85;100.00;96054.38;10551140;28;2085;-66
2024/01/08 10:38:51;;;;;;;;;;;;;;;-3.76;100.00;96049.88;10535071;28;2108;-67
2024/01/08 10:43:54;;;;;;;;;;;;;;;-3.72;100.00;96040.66;10546117;28;1918;-66
2024/01/08 10:48:59;;;;;;;;;;;;;;;-3.58;100.00;96045.09;10545716;28;2070;-66
2024/01/08 10:54:03;;;;;;;;;;;;;;;-3.30;100.00;96046.16;10553630;28;2092;-66
2024/01/08 10:59:06;;;;;;;;;;;;;;;-3.46;100.00;96037.59;10567174;28;2045;-66
2024/01/08 11:04:09;;;;;;;;;;;;;;;-3.48;100.00;96037.78;10556007;28;2610;-66
2024/01/08 11:09:11;;;;;;;;;;;;;;;-3.44;100.00;96033.78;10545510;27;2041;-68
2024/01/08 11:14:22;;;;;;;;;;;;;;;-3.23;100.00;96037.53;10548722;28;2048;-68
2024/01/08 11:19:27;;;;;;;;;;;;;;;-3.44;100.00;96025.91;10548471;28;1987;-66
2024/01/08 11:24:32;;;;;;;;;;;;;;;-3.28;100.00;96038.09;10540306;28;2022;-67
2024/01/08 11:29:36;;;;;;;;;;;;;;;-2.83;100.00;96030.97;10560797;27;1887;-72
2024/01/08 11:34:38;;;;;;;;;;;;;;;-3.03;100.00;96036.81;10555880;28;1906;-66
2024/01/08 11:39:41;;;;;;;;;;;;;;;-3.20;100.00;96042.44;10549669;28;1887;-69
2024/01/08 11:44:44;;;;;;;;;;;;;;;-2.87;100.00;96035.78;10553165;28;1912;-65
2024/01/08 11:49:47;;;;;;;;;;;;;;;-2.90;100.00;96036.16;10533108;28;2022;-67
2024/01/08 11:54:52;;;;;;;;;;;;;;;-3.14;100.00;96039.06;10548789;27;2140;-68
2024/01/08 11:59:55;;;;;;;;;;;;;;;-2.96;100.00;96030.81;10560630;27;2528;-67
2024/01/08 12:04:58;;;;;;;;;;;;;;;-2.91;100.00;96031.91;10550428;28;2116;-68
2024/01/08 12:10:01;;;;;;;;;;;;;;;-2.61;100.00;96039.72;10553369;28;2014;-68
2024/01/08 12:15:04;;;;;;;;;;;;;;;-3.09;100.00;96024.38;10545449;28;2032;-68
2024/01/08 12:20:07;;;;;;;;;;;;;;;-2.98;100.00;96033.63;10550132;28;1934;-67
2024/01/08 12:25:10;;;;;;;;;;;;;;;-2.88;100.00;96031.53;10550124;28;1983;-67
2024/01/08 12:30:13;;;;;;;;;;;;;;;-3.24;100.00;96034.09;10554912;27;1981;-66
2024/01/08 12:35:17;;;;;;;;;;;;;;;-3.27;100.00;96032.63;10555665;28;1922;-66
2024/01/08 12:40:21;;;;;;;;;;;;;;;-3.27;100.00;96035.25;10570004;27;1895;-67
2024/01/08 12:45:25;;;;;;;;;;;;;;;-3.40;100.00;96040.34;10555690;28;1955;-70
2024/01/08 12:50:28;;;;;;;;;;;;;;;-3.18;100.00;96033.38;10530921;28;2367;-67
2024/01/08 12:55:31;;;;;;;;;;;;;;;-3.16;100.00;96046.34;10552094;28;1902;-67
2024/01/08 13:00:35;;;;;;;;;;;;;;;-3.20;100.00;96047.69;10548129;28;1927;-66
2024/01/08 13:05:38;;;;;;;;;;;;;;;-3.03;100.00;96047.31;10552499;28;2036;-67
2024/01/08 13:10:43;;;;;;;;;;;;;;;-2.95;100.00;96038.53;10556689;28;2018;-67
2024/01/08 13:15:46;;;;;;;;;;;;;;;-2.70;100.00;96039.03;10550193;28;2123;-68
2024/01/08 13:20:49;;;;;;;;;;;;;;;-2.72;100.00;96044.50;10545166;28;1891;-68
2024/01/08 13:25:52;;;;;;;;;;;;;;;-2.62;100.00;96044.19;10549470;28;1907;-65
2024/01/08 13:30:58;;;;;;;;;;;;;;;-2.77;100.00;96052.13;10554034;28;2143;-67
2024/01/08 13:36:02;;;;;;;;;;;;;;;-3.02;100.00;96048.13;10527625;28;2321;-68
2024/01/08 13:41:05;;;;;;;;;;;;;;;-3.21;100.00;96056.56;10535824;28;2540;-67
2024/01/08 13:46:11;;;;;;;;;;;;;;;-3.21;100.00;96067.91;10555227;27;2065;-66
2024/01/08 13:51:14;;;;;;;;;;;;;;;-3.20;100.00;96066.09;10553011;28;2081;-68
2024/01/08 13:56:18;;;;;;;;;;;;;;;-3.09;100.00;96068.28;10559526;28;2097;-66
2024/01/08 14:01:21;;;;;;;;;;;;;;;-3.26;100.00;96071.06;10537443;28;2055;-68
2024/01/08 14:06:23;;;;;;;;;;;;;;;-3.28;100.00;96075.69;10559230;28;2195;-67
2024/01/08 14:11:29;;;;;;;;;;;;;;;-3.22;100.00;96078.63;10556899;27;2068;-66
2024/01/08 14:16:32;;;;;;;;;;;;;;;-3.41;100.00;96088.66;10555580;28;2347;-67
2024/01/08 14:21:34;;;;;;;;;;;;;;;-3.38;100.00;96098.78;10533560;28;2115;-68
2024/01/08 14:26:40;;;;;;;;;;;;;;;-3.45;100.00;96105.75;10554906;28;1981;-71
2024/01/08 14:31:43;;;;;;;;;;;;;;;-3.56;100.00;96106.22;10533702;28;2317;-68
2024/01/08 14:36:47;;;;;;;;;;;;;;;-3.51;100.00;96106.47;10553569;28;2200;-68
2024/01/08 14:41:49;;;;;;;;;;;;;;;-3.54;100.00;96118.16;10545560;28;2224;-73
2024/01/08 14:46:52;;;;;;;;;;;;;;;-3.62;100.00;96123.50;10551151;27;2077;-75
2024/01/08 14:51:55;;;;;;;;;;;;;;;-3.55;100.00;96131.50;10551180;27;1958;-72
2024/01/08 14:56:58;;;;;;;;;;;;;;;-3.53;100.00;96132.13;10556275;28;2129;-73
2024/01/08 15:02:01;;;;;;;;;;;;;;;-3.68;100.00;96132.09;10547229;27;1925;-68
2024/01/08 15:07:07;;;;;;;;;;;;;;;-3.70;100.00;96127.97;10548336;28;1975;-66
2024/01/08 15:12:10;;;;;;;;;;;;;;;-3.81;100.00;96137.09;10554269;28;1985;-66
2024/01/08 15:17:13;;;;;;;;;;;;;;;-3.87;100.00;96143.88;10543450;28;2339;-66
2024/01/08 15:22:16;;;;;;;;;;;;;;;-3.91;100.00;96147.81;10549710;27;1943;-72
2024/01/08 15:27:19;;;;;;;;;;;;;;;-3.93;100.00;96154.25;10559408;28;2519;-71
2024/01/08 15:32:22;;;;;;;;;;;;;;;-3.90;100.00;96154.72;10541082;28;1890;-73
2024/01/08 15:37:26;;;;;;;;;;;;;;;-3.88;100.00;96163.25;10538599;27;2241;-72
2024/01/08 15:42:33;;;;;;;;;;;;;;;-3.92;100.00;96161.97;10565382;27;2037;-72
2024/01/08 15:47:36;;;;;;;;;;;;;;;-3.92;100.00;96167.22;10558466;28;1917;-71
2024/01/08 15:52:40;;;;;;;;;;;;;;;-3.87;100.00;96174.56;10554625;28;2149;-72
2024/01/08 15:57:43;;;;;;;;;;;;;;;-3.87;100.00;96172.75;10559323;28;2009;-74
2024/01/08 16:02:46;;;;;;;;;;;;;;;-3.86;100.00;96177.03;10556416;28;2313;-68
2024/01/08 16:07:48;;;;;;;;;;;;;;;-3.85;100.00;96186.53;10547347;28;2220;-68
2024/01/08 16:12:54;;;;;;;;;;;;;;;-3.77;100.00;96187.47;10552949;27;2289;-69
2024/01/08 16:17:58;;;;;;;;;;;;;;;-3.73;100.00;96191.41;10549744;28;1997;-68
2024/01/08 16:23:01;;;;;;;;;;;;;;;-3.71;100.00;96199.91;10544036;28;2220;-68
2024/01/08 16:28:05;;;;;;;;;;;;;;;-3.78;100.00;96201.59;10547383;28;2195;-68
2024/01/08 16:33:08;;;;;;;;;;;;;;;-3.85;100.00;96204.09;10548813;28;2210;-68
2024/01/08 16:38:11;;;;;;;;;;;;;;;-3.96;100.00;96207.94;10545248;28;2057;-67
2024/01/08 16:43:14;;;;;;;;;;;;;;;-3.91;100.00;96220.56;10554162;28;1495;-69
2024/01/08 16:48:18;;;;;;;;;;;;;;;-3.86;100.00;96223.47;10564090;28;1969;-67
2024/01/08 16:53:22;;;;;;;;;;;;;;;-3.82;100.00;96219.50;10560884;28;2317;-72
2024/01/08 16:58:27;;;;;;;;;;;;;;;-3.90;100.00;96220.38;10566377;28;1502;-67
2024/01/08 17:03:30;;;;;;;;;;;;;;;-3.94;100.00;96218.28;10564527;28;1543;-66
2024/01/08 17:08:32;;;;;;;;;;;;;;;-3.89;100.00;96224.63;10560241;28;1934;-69
2024/01/08 17:13:36;;;;;;;;;;;;;;;-4.01;100.00;96220.75;10561404;28;1439;-67
2024/01/08 17:18:38;;;;;;;;;;;;;;;-4.00;100.00;96219.78;10559281;28;1838;-66
2024/01/08 17:23:41;;;;;;;;;;;;;;;-3.95;100.00;96224.50;10568047;28;1846;-68
2024/01/08 17:28:44;;;;;;;;;;;;;;;-3.92;100.00;96230.25;10584940;27;1898;-67
2024/01/08 17:33:47;;;;;;;;;;;;;;;-3.96;100.00;96239.44;10565431;27;1562;-67
2024/01/08 17:38:51;;;;;;;;;;;;;;;-4.04;100.00;96246.56;10568890;27;2392;-69
2024/01/08 17:43:54;;;;;;;;;;;;;;;-4.05;100.00;96251.00;10563252;28;1534;-68
2024/01/08 17:48:58;;;;;;;;;;;;;;;-4.01;100.00;96261.94;10566395;27;1996;-73
2024/01/08 17:54:01;;;;;;;;;;;;;;;-4.00;100.00;96258.34;10548265;27;1475;-72
2024/01/08 17:59:03;;;;;;;;;;;;;;;-4.03;100.00;96264.75;10539487;28;1517;-71
2024/01/08 18:04:06;;;;;;;;;;;;;;;-4.03;100.00;96256.06;10561341;27;1515;-71
2024/01/08 18:09:13;;;;;;;;;;;;;;;-4.15;100.00;96260.88;10554411;28;1991;-72
2024/01/08 18:14:17;;;;;;;;;;;;;;;-4.21;100.00;96257.09;10552530;28;2112;-71
2024/01/08 18:19:20;;;;;;;;;;;;;;;-4.27;100.00;96267.47;10544636;28;2117;-71
2024/01/08 18:24:24;;;;;;;;;;;;;;;-4.30;100.00;96268.63;10553046;27;2037;-72
2024/01/08 18:29:34;;;;;;;;;;;;;;;-4.26;100.00;96274.34;10548016;28;2120;-67
2024/01/08 18:34:37;;;;;;;;;;;;;;;-4.35;100.00;96281.44;10548325;28;2500;-70
2024/01/08 18:39:40;;;;;;;;;;;;;;;-4.40;100.00;96273.25;10554645;28;2014;-69
2024/01/08 18:44:43;;;;;;;;;;;;;;;-4.35;100.00;96277.00;10558530;28;2130;-68
2024/01/08 18:49:47;;;;;;;;;;;;;;;-4.35;100.00;96287.50;10535394;28;2006;-68
2024/01/08 18:54:51;;;;;;;;;;;;;;;-4.39;100.00;96288.84;10560364;28;1923;-69
2024/01/08 18:59:54;;;;;;;;;;;;;;;-4.37;100.00;96289.50;10554352;27;2257;-69
2024/01/08 19:04:57;;;;;;;;;;;;;;;-4.40;100.00;96284.56;10554470;28;2061;-67
2024/01/08 19:10:02;;;;;;;;;;;;;;;-4.43;100.00;96294.59;10565096;27;1953;-69
2024/01/08 19:15:06;;;;;;;;;;;;;;;-4.37;100.00;96293.91;10554569;27;2104;-70
2024/01/08 19:20:09;;;;;;;;;;;;;;;-4.45;100.00;96300.00;10562727;27;2394;-69
2024/01/08 19:25:12;;;;;;;;;;;;;;;-4.44;100.00;96304.28;10559115;28;1992;-69
2024/01/08 19:30:17;;;;;;;;;;;;;;;-4.44;100.00;96309.53;10552428;27;1888;-75
2024/01/08 19:35:20;;;;;;;;;;;;;;;-4.42;100.00;96309.34;10555898;28;2001;-71
2024/01/08 19:40:25;;;;;;;;;;;;;;;-4.63;100.00;96313.31;10547604;28;1942;-72
2024/01/08 19:45:29;;;;;;;;;;;;;;;-4.56;100.00;96313.47;10558844;27;2132;-69
2024/01/08 19:50:32;;;;;;;;;;;;;;;-4.52;100.00;96333.13;10548076;28;2008;-67
2024/01/08 19:55:37;;;;;;;;;;;;;;;-4.50;100.00;96318.06;10555565;28;2053;-68
2024/01/08 20:00:40;;;;;;;;;;;;;;;-4.63;100.00;96317.75;10552565;27;1993;-66
2024/01/08 20:05:42;;;;;;;;;;;;;;;-4.67;100.00;96325.13;10551925;28;1965;-68
2024/01/08 20:10:45;;;;;;;;;;;;;;;-4.60;100.00;96324.47;10557877;28;2113;-67
2024/01/08 20:15:48;;;;;;;;;;;;;;;-4.66;100.00;96318.06;10553199;28;2312;-69
2024/01/08 20:20:51;;;;;;;;;;;;;;;-4.70;100.00;96329.88;10557197;28;1912;-70
2024/01/08 20:25:54;;;;;;;;;;;;;;;-4.72;100.00;96323.97;10558462;28;2244;-69
2024/01/08 20:31:00;;;;;;;;;;;;;;;-4.72;100.00;96331.84;10555538;28;2132;-67
2024/01/08 20:36:02;;;;;;;;;;;;;;;-4.74;100.00;96329.38;10560427;28;1965;-69
2024/01/08 20:41:07;;;;;;;;;;;;;;;-4.66;100.00;96337.25;10559256;28;1880;-69
2024/01/08 20:46:11;;;;;;;;;;;;;;;-4.70;100.00;96329.88;10545099;28;1973;-68
2024/01/08 20:51:14;;;;;;;;;;;;;;;-4.72;100.00;96314.28;10564730;28;1420;-68
2024/01/08 20:56:19;;;;;;;;;;;;;;;-4.59;100.00;96329.53;10560533;28;1204;-68
2024/01/08 21:01:22;;;;;;;;;;;;;;;-4.53;100.00;96326.25;10561385;28;2261;-68
2024/01/08 21:06:24;;;;;;;;;;;;;;;-4.65;100.00;96332.81;10564605;28;1965;-67
2024/01/08 21:11:27;;;;;;;;;;;;;;;-4.73;100.00;96327.59;10565650;28;1620;-68
2024/01/08 21:16:31;;;;;;;;;;;;;;;-4.88;100.00;96326.63;10547987;28;1785;-67
2024/01/08 21:21:34;;;;;;;;;;;;;;;-5.06;100.00;96345.13;10563380;28;1428;-66
2024/01/08 21:26:38;;;;;;;;;;;;;;;-5.13;100.00;96342.31;10562410;28;1906;-66
2024/01/08 21:31:41;;;;;;;;;;;;;;;-5.29;100.00;96344.91;10565729;28;1675;-67
2024/01/08 21:36:45;;;;;;;;;;;;;;;-5.37;100.00;96348.34;10538690;28;1534;-67
2024/01/08 21:41:48;;;;;;;;;;;;;;;-5.46;100.00;96352.75;10543230;28;1520;-68
2024/01/08 21:46:51;;;;;;;;;;;;;;;-5.58;100.00;96351.41;10554516;28;2037;-68
2024/01/08 21:51:53;;;;;;;;;;;;;;;-5.63;100.00;96347.63;10553694;28;2131;-66
2024/01/08 21:56:57;;;;;;;;;;;;;;;-5.71;100.00;96351.03;10542532;28;2070;-65
2024/01/08 22:02:02;;;;;;;;;;;;;;;-5.79;100.00;96343.97;10539096;28;2762;-67
2024/01/08 22:07:05;;;;;;;;;;;;;;;-5.83;100.00;96341.81;10544150;27;2021;-68
2024/01/08 22:12:09;;;;;;;;;;;;;;;-5.90;100.00;96346.06;10558331;27;1950;-73
2024/01/08 22:17:12;;;;;;;;;;;;;;;-5.95;100.00;96343.94;10560794;27;2274;-73
2024/01/08 22:22:14;;;;;;;;;;;;;;;-6.04;100.00;96340.47;10544322;28;1939;-72
2024/01/08 22:27:17;;;;;;;;;;;;;;;-6.12;100.00;96337.78;10560695;28;2033;-74
2024/01/08 22:32:19;;;;;;;;;;;;;;;-6.22;100.00;96339.72;10559242;28;1890;-76
2024/01/08 22:37:22;;;;;;;;;;;;;;;-6.28;100.00;96342.94;10557548;28;2059;-65
2024/01/08 22:42:28;;;;;;;;;;;;;;;-6.33;100.00;96347.81;10549101;28;1930;-70
2024/01/08 22:47:31;;;;;;;;;;;;;;;-6.43;100.00;96344.47;10557468;27;2908;-74
2024/01/08 22:52:34;;;;;;;;;;;;;;;-6.48;100.00;96342.34;10555528;28;1948;-69
2024/01/08 22:57:38;;;;;;;;;;;;;;;-6.58;100.00;96341.63;10561363;28;2038;-73
2024/01/08 23:02:42;;;;;;;;;;;;;;;-6.66;100.00;96339.78;10528346;27;2174;-72
2024/01/08 23:07:46;;;;;;;;;;;;;;;-6.71;100.00;96346.44;10565188;27;2144;-66
2024/01/08 23:12:49;;;;;;;;;;;;;;;-6.70;100.00;96348.06;10551470;28;2140;-67
2024/01/08 23:17:52;;;;;;;;;;;;;;;-6.60;100.00;96349.63;10557311;28;2124;-68
2024/01/08 23:22:55;;;;;;;;;;;;;;;-6.53;100.00;96350.66;10555729;28;1949;-68
2024/01/08 23:27:58;;;;;;;;;;;;;;;-6.45;100.00;96349.06;10558437;28;2226;-65
2024/01/08 23:33:01;;;;;;;;;;;;;;;-6.39;100.00;96351.06;10528214;28;2977;-66
2024/01/08 23:38:04;;;;;;;;;;;;;;;-6.42;100.00;96351.38;10542648;28;1970;-66
2024/01/08 23:43:09;;;;;;;;;;;;;;;-6.40;100.00;96354.66;10551845;28;2104;-67
2024/01/08 23:48:13;;;;;;;;;;;;;;;-6.53;100.00;96347.22;10554487;28;1986;-66
2024/01/08 23:53:16;;;;;;;;;;;;;;;-6.55;100.00;96342.16;10550749;28;2112;-66
2024/01/08 23:58:19;;;;;;;;;;;;;;;-6.76;100.00;96348.66;10557845;28;2061;-67
